Time;durP1;ratioP1;P1;durP2;ratioP2;P2;SDS_P1;SDS_P2;PMS_P1;PMS_P2;Temp;Humidity;BMP_temperature;BMP_pressure;BME280_temperature;BME280_humidity;BME280_pressure;Samples;Min_cycle;Max_cycle;Signal;HPM_P1;HPM_P2
2021/04/23 14:01:09;;;;;;;8.38;4.17;;;;;;;12.66;42.50;100959.55;2144339;82;31179;-69
2021/04/23 14:04:17;;;;;;;9.78;5.10;;;;;;;12.65;42.74;100955.61;2100172;84;33139;-70
2021/04/23 14:07:25;;;;;;;9.60;5.28;;;;;;;12.66;41.81;100967.62;2099268;84;29174;-69
2021/04/23 14:10:27;;;;;;;7.35;4.37;;;;;;;12.69;42.30;100965.27;2106363;82;27779;-70
2021/04/23 14:13:29;;;;;;;12.28;5.67;;;;;;;12.74;42.39;100959.22;2106199;84;29670;-70
2021/04/23 14:16:32;;;;;;;12.13;4.75;;;;;;;12.85;41.83;100961.36;2106386;84;32580;-69
2021/04/23 14:19:35;;;;;;;14.13;7.25;;;;;;;12.95;41.88;100965.81;2106459;84;33112;-71
2021/04/23 14:22:37;;;;;;;11.73;5.42;;;;;;;12.98;41.25;100967.02;2106894;84;29162;-70
2021/04/23 14:25:39;;;;;;;8.55;3.95;;;;;;;12.97;41.48;100963.47;2126560;83;27775;-71
2021/04/23 14:28:43;;;;;;;7.45;4.17;;;;;;;13.01;40.82;100967.73;2143692;83;28845;-70
2021/04/23 14:31:46;;;;;;;9.48;4.90;;;;;;;12.97;40.84;100968.85;2113773;83;31146;-68
2021/04/23 14:34:48;;;;;;;8.15;3.90;;;;;;;12.88;40.96;100973.31;2164151;81;33113;-71
2021/04/23 14:37:50;;;;;;;9.98;4.08;;;;;;;12.80;40.89;100975.03;2165431;81;29298;-71
2021/04/23 14:40:55;;;;;;;8.38;4.15;;;;;;;12.72;40.53;100972.71;2180428;81;28277;-71
2021/04/23 14:43:57;;;;;;;9.70;4.45;;;;;;;12.64;40.94;100972.22;2181099;81;28017;-70
2021/04/23 14:46:59;;;;;;;9.45;4.75;;;;;;;12.59;40.76;100968.38;2156530;81;31144;-69
2021/04/23 14:50:02;;;;;;;10.15;4.10;;;;;;;12.58;40.99;100969.33;2143301;83;33065;-71
2021/04/23 14:53:05;;;;;;;12.20;4.83;;;;;;;12.60;40.52;100964.75;2144032;83;29207;-72
2021/04/23 14:56:08;;;;;;;14.47;6.37;;;;;;;12.63;40.83;100959.72;2143766;83;28179;-70
2021/04/23 14:59:10;;;;;;;12.82;4.90;;;;;;;12.75;41.13;100955.55;2142102;81;28819;-71
2021/04/23 15:02:12;;;;;;;11.80;5.15;;;;;;;12.90;41.12;100967.39;2140074;82;31343;-70
2021/04/23 15:05:15;;;;;;;12.70;3.50;;;;;;;13.04;40.65;100969.42;2140624;83;33133;-70
2021/04/23 15:08:17;;;;;;;17.27;6.15;;;;;;;13.14;40.67;100963.11;2133799;83;29163;-75
2021/04/23 15:11:19;;;;;;;7.97;4.37;;;;;;;13.14;39.94;100959.08;2133211;83;27885;-72
2021/04/23 15:14:22;;;;;;;9.05;3.92;;;;;;;13.18;39.85;100953.91;2110216;83;28888;-73
2021/04/23 15:17:24;;;;;;;9.73;4.12;;;;;;;13.19;39.80;100959.70;2136686;83;31216;-69
2021/04/23 15:20:26;;;;;;;16.30;7.20;;;;;;;13.17;39.72;100965.63;2139917;83;33117;-72
2021/04/23 15:23:29;;;;;;;9.58;4.47;;;;;;;13.13;39.66;100964.91;2140279;83;29174;-73
2021/04/23 15:26:31;;;;;;;6.85;3.52;;;;;;;13.15;39.66;100970.23;2139534;83;27792;-73
2021/04/23 15:29:34;;;;;;;8.15;3.52;;;;;;;13.21;39.73;100959.15;2111095;83;28815;-72
2021/04/23 15:32:36;;;;;;;10.32;4.15;;;;;;;13.28;38.99;100957.02;2102727;84;31187;-73
2021/04/23 15:35:39;;;;;;;9.65;4.42;;;;;;;13.30;39.24;100959.16;2107503;83;34134;-73
2021/04/23 15:38:41;;;;;;;9.38;3.70;;;;;;;13.30;38.84;100963.20;2139712;83;30628;-72
2021/04/23 15:41:43;;;;;;;6.25;3.17;;;;;;;13.31;39.09;100963.14;2140309;83;27657;-70
2021/04/23 15:44:46;;;;;;;6.58;3.98;;;;;;;13.28;38.79;100969.13;2140767;83;28948;-75
2021/04/23 15:47:48;;;;;;;7.65;3.58;;;;;;;13.28;38.84;100965.09;2140970;83;31995;-78
2021/04/23 15:50:56;;;;;;;6.12;3.15;;;;;;;13.26;38.88;100973.25;2141052;83;33215;-76
2021/04/23 15:53:58;;;;;;;8.10;3.22;;;;;;;13.23;38.75;100968.02;2150101;81;29233;-77
2021/04/23 15:57:00;;;;;;;13.48;4.83;;;;;;;13.18;38.78;100962.87;2156061;81;27664;-70
2021/04/23 16:00:07;;;;;;;11.38;3.70;;;;;;;13.13;38.94;100964.06;2137920;83;28827;-73
2021/04/23 16:03:10;;;;;;;6.83;3.10;;;;;;;13.08;38.78;100966.95;2165861;82;31204;-76
2021/04/23 16:06:13;;;;;;;9.18;3.47;;;;;;;13.02;38.63;100964.09;2131023;82;33240;-67
2021/04/23 16:09:15;;;;;;;11.95;4.10;;;;;;;12.99;39.02;100963.38;2163752;82;29211;-69
2021/04/23 16:12:17;;;;;;;8.55;3.77;;;;;;;12.99;38.39;100964.73;2150963;81;27810;-71
2021/04/23 16:15:22;;;;;;;7.25;2.80;;;;;;;12.92;38.72;100965.50;2116704;83;28232;-76
2021/04/23 16:18:26;;;;;;;5.83;2.83;;;;;;;12.89;38.74;100972.37;2126924;81;32229;-66
2021/04/23 16:21:31;;;;;;;8.23;3.65;;;;;;;12.85;39.04;100962.25;2178742;81;33129;-71
2021/04/23 16:24:33;;;;;;;4.87;2.90;;;;;;;12.80;38.59;100961.59;2150398;80;29402;-72
2021/04/23 16:27:37;;;;;;;5.95;3.00;;;;;;;12.76;38.93;100967.59;2111769;83;27853;-70
2021/04/23 16:30:39;;;;;;;5.53;3.10;;;;;;;12.71;38.80;100962.90;2100279;84;29700;-67
2021/04/23 16:33:42;;;;;;;5.92;2.98;;;;;;;12.64;38.62;100965.95;2122508;81;31080;-71
2021/04/23 16:36:44;;;;;;;10.78;3.83;;;;;;;12.57;38.74;100961.34;2138361;81;33893;-72
2021/04/23 16:39:54;;;;;;;8.53;3.65;;;;;;;12.50;39.09;100971.97;2153341;81;29172;-74
2021/04/23 16:42:56;;;;;;;8.40;3.27;;;;;;;12.46;39.29;100972.14;2108507;81;27695;-74
2021/04/23 16:45:58;;;;;;;11.03;4.47;;;;;;;12.38;39.00;100968.07;2128584;81;28136;-70
2021/04/23 16:49:01;;;;;;;13.90;3.67;;;;;;;12.34;39.51;100974.03;2143832;82;31185;-73
2021/04/23 16:52:03;;;;;;;10.70;3.47;;;;;;;12.29;39.44;100968.87;2125258;82;33186;-70
2021/04/23 16:55:07;;;;;;;6.37;3.47;;;;;;;12.22;39.39;100967.44;2124091;83;29445;-69
2021/04/23 16:58:12;;;;;;;8.23;3.22;;;;;;;12.20;39.24;100969.77;2130349;82;27684;-74
2021/04/23 17:01:14;;;;;;;8.38;4.45;;;;;;;12.10;39.31;100969.31;2143806;82;28809;-75
2021/04/23 17:04:23;;;;;;;9.88;4.50;;;;;;;12.02;39.20;100975.52;2154402;82;31398;-70
2021/04/23 17:07:26;;;;;;;9.88;4.37;;;;;;;11.93;39.31;100970.91;2124961;83;34010;-68
2021/04/23 17:10:28;;;;;;;14.98;4.20;;;;;;;11.87;39.64;100971.20;2124088;83;29154;-67
2021/04/23 17:13:30;;;;;;;7.47;3.50;;;;;;;11.78;39.74;100974.28;2132777;82;27721;-70
2021/04/23 17:16:33;;;;;;;15.93;3.87;;;;;;;11.71;39.69;100975.02;2104765;84;29712;-69
2021/04/23 17:19:35;;;;;;;6.20;3.22;;;;;;;11.65;39.62;100979.33;2128377;83;31077;-68
2021/04/23 17:22:39;;;;;;;9.05;4.37;;;;;;;11.59;39.92;100985.81;2127507;83;34022;-64
2021/04/23 17:25:41;;;;;;;12.13;7.05;;;;;;;11.53;40.21;100985.61;2140697;83;29163;-63
2021/04/23 17:28:43;;;;;;;11.83;5.78;;;;;;;11.50;40.35;100987.55;2105779;83;27614;-67
2021/04/23 17:31:45;;;;;;;17.23;5.08;;;;;;;11.46;40.34;100988.62;2134555;83;28169;-67
2021/04/23 17:34:48;;;;;;;12.85;6.45;;;;;;;11.38;41.20;100984.47;2123864;83;31234;-69
2021/04/23 17:37:51;;;;;;;16.90;8.05;;;;;;;11.30;41.33;100985.72;2102996;83;33194;-69
2021/04/23 17:40:53;;;;;;;11.53;5.55;;;;;;;11.22;41.67;100988.23;2123037;83;30095;-70
2021/04/23 17:43:55;;;;;;;13.55;5.58;;;;;;;11.19;42.13;100993.72;2133208;82;28218;-68
2021/04/23 17:46:58;;;;;;;12.00;5.53;;;;;;;11.14;42.31;100986.80;2130435;83;28871;-71
2021/04/23 17:50:00;;;;;;;13.70;5.30;;;;;;;11.06;42.73;100993.37;2124279;83;32082;-68
2021/04/23 17:53:05;;;;;;;12.65;6.33;;;;;;;10.99;42.96;100999.91;2124804;83;33108;-76
2021/04/23 17:56:07;;;;;;;10.30;4.90;;;;;;;10.92;43.42;100989.90;2125012;83;29409;-72
2021/04/23 17:59:09;;;;;;;13.48;6.00;;;;;;;10.88;43.59;101000.33;2142072;81;27601;-67
2021/04/23 18:02:12;;;;;;;17.27;6.65;;;;;;;10.81;43.93;100998.84;2182789;81;29843;-67
2021/04/23 18:05:17;;;;;;;12.80;6.62;;;;;;;10.74;44.17;101002.23;2182634;81;32368;-67
2021/04/23 18:08:20;;;;;;;11.55;5.80;;;;;;;10.68;44.41;101012.29;2181727;80;48219;-68
2021/04/23 18:11:27;;;;;;;18.50;6.08;;;;;;;10.61;44.60;101022.38;2183235;80;30466;-68
2021/04/23 18:14:29;;;;;;;12.63;6.20;;;;;;;10.58;44.88;101026.53;2182257;81;27623;-68
2021/04/23 18:17:31;;;;;;;15.70;6.97;;;;;;;10.55;45.26;101026.64;2182513;80;28145;-67
2021/04/23 18:20:36;;;;;;;18.87;6.37;;;;;;;10.54;45.16;101031.59;2182470;81;31089;-67
2021/04/23 18:23:38;;;;;;;15.00;6.92;;;;;;;10.52;45.52;101032.97;2182992;80;33129;-71
2021/04/23 18:26:40;;;;;;;24.65;10.43;;;;;;;10.49;45.56;101032.63;2182651;81;29154;-66
2021/04/23 18:29:43;;;;;;;24.37;13.08;;;;;;;10.45;45.69;101036.83;2205690;80;27603;-70
2021/04/23 18:32:48;;;;;;;26.02;9.08;;;;;;;10.43;45.88;101036.01;2182782;81;28813;-66
2021/04/23 18:35:51;;;;;;;20.68;7.72;;;;;;;10.38;46.10;101043.30;2182301;80;31083;-67
2021/04/23 18:38:54;;;;;;;15.80;7.75;;;;;;;10.30;46.16;101063.22;2182604;80;33134;-66
2021/04/23 18:41:58;;;;;;;18.70;8.40;;;;;;;10.25;46.87;101060.30;2183162;80;30053;-61
2021/04/23 18:45:06;;;;;;;13.55;7.17;;;;;;;10.20;47.40;101045.72;2182517;81;27622;-66
2021/04/23 18:48:09;;;;;;;14.03;7.03;;;;;;;10.15;47.64;101057.08;2182733;81;28808;-67
2021/04/23 18:51:14;;;;;;;9.93;5.75;;;;;;;10.08;48.11;101059.10;2183013;80;31124;-65
2021/04/23 18:54:16;;;;;;;18.60;9.73;;;;;;;10.03;48.08;101062.39;2187228;80;33972;-65
2021/04/23 18:57:18;;;;;;;19.77;8.93;;;;;;;9.99;48.31;101058.06;2202722;80;28450;-64
2021/04/23 19:00:25;;;;;;;16.05;8.85;;;;;;;9.96;48.34;101063.52;2173024;80;27945;-64
2021/04/23 19:03:28;;;;;;;16.48;7.87;;;;;;;9.96;49.02;101059.06;2165783;82;28818;-63
2021/04/23 19:06:31;;;;;;;20.88;8.28;;;;;;;9.93;48.89;101055.62;2165190;82;31204;-64
2021/04/23 19:09:33;;;;;;;16.82;7.67;;;;;;;9.90;49.28;101068.63;2152444;82;33577;-66
2021/04/23 19:12:36;;;;;;;19.00;8.00;;;;;;;9.83;48.99;101063.09;2125599;82;29640;-63
2021/04/23 19:15:39;;;;;;;27.85;10.48;;;;;;;9.79;49.35;101055.61;2125012;83;27790;-63
2021/04/23 19:18:44;;;;;;;18.30;8.03;;;;;;;9.77;49.29;101066.83;2125303;83;29716;-62
2021/04/23 19:21:48;;;;;;;21.03;9.70;;;;;;;9.73;49.50;101074.58;2137016;82;31092;-62
2021/04/23 19:24:50;;;;;;;14.83;7.03;;;;;;;9.68;49.64;101066.67;2125545;83;33178;-62
2021/04/23 19:27:53;;;;;;;18.92;8.05;;;;;;;9.63;50.11;101072.66;2125425;83;29184;-69
2021/04/23 19:30:56;;;;;;;17.42;7.90;;;;;;;9.56;50.50;101072.00;2115717;83;27664;-63
2021/04/23 19:33:58;;;;;;;15.65;7.87;;;;;;;9.52;50.45;101075.69;2095796;83;29704;-62
2021/04/23 19:37:01;;;;;;;17.77;7.35;;;;;;;9.49;50.64;101071.77;2114808;84;31649;-63
2021/04/23 19:40:06;;;;;;;18.52;8.25;;;;;;;9.47;50.76;101072.75;2101203;82;33749;-63
2021/04/23 19:43:09;;;;;;;23.47;7.37;;;;;;;9.43;50.97;101078.67;2088152;85;29173;-64
2021/04/23 19:46:11;;;;;;;19.23;9.28;;;;;;;9.39;51.23;101077.02;2088107;85;27650;-65
2021/04/23 19:49:14;;;;;;;25.37;7.62;;;;;;;9.37;51.20;101078.86;2088009;85;31161;-61
2021/04/23 19:52:19;;;;;;;18.50;7.78;;;;;;;9.32;51.64;101075.00;2087842;85;32562;-63
2021/04/23 19:55:21;;;;;;;14.83;7.20;;;;;;;9.25;51.63;101080.13;2052293;85;32417;-65
2021/04/23 19:58:29;;;;;;;18.98;6.40;;;;;;;9.18;51.68;101069.22;2123901;82;30073;-64
2021/04/23 20:01:31;;;;;;;;;;;;;;;9.06;51.60;101071.34;2203322;80;27631;-60
2021/04/23 20:04:33;;;;;;;16.10;7.05;;;;;;;8.99;51.69;101078.25;2133925;81;28860;-64
2021/04/23 20:07:35;;;;;;;19.62;8.10;;;;;;;8.89;51.85;101069.20;2127987;83;31143;-61
2021/04/23 20:10:37;;;;;;;17.40;8.08;;;;;;;8.81;52.04;101077.88;2143296;82;33114;-62
2021/04/23 20:13:40;;;;;;;17.23;8.15;;;;;;;8.76;52.24;101086.52;2143970;83;29177;-63
2021/04/23 20:16:43;;;;;;;25.40;8.73;;;;;;;8.73;52.26;101081.26;2143428;83;27736;-62
2021/04/23 20:19:47;;;;;;;25.20;10.78;;;;;;;8.72;52.52;101076.84;2142835;83;28845;-62
2021/04/23 20:22:50;;;;;;;28.95;14.93;;;;;;;8.71;52.74;101076.41;2142706;83;31166;-62
2021/04/23 20:25:52;;;;;;;34.33;17.60;;;;;;;8.69;52.71;101071.09;2143432;83;35408;-70
2021/04/23 20:28:54;;;;;;;33.30;17.23;;;;;;;8.71;53.10;101078.61;2108550;83;29222;-66
2021/04/23 20:31:56;;;;;;;41.58;18.92;;;;;;;8.71;53.10;101077.28;2105951;84;27732;-63
2021/04/23 20:34:58;;;;;;;33.88;17.62;;;;;;;8.71;53.19;101077.28;2138060;83;28843;-61
2021/04/23 20:38:02;;;;;;;24.15;11.60;;;;;;;8.72;53.46;101079.03;2143679;83;33486;-64
2021/04/23 20:41:05;;;;;;;27.45;11.18;;;;;;;8.72;53.78;101075.02;2143534;82;33670;-64
2021/04/23 20:44:07;;;;;;;18.70;8.73;;;;;;;8.72;53.89;101072.83;2143486;83;29582;-63
2021/04/23 20:47:09;;;;;;;17.62;8.43;;;;;;;8.69;54.05;101069.77;2143128;83;28266;-63
2021/04/23 20:50:14;;;;;;;15.03;8.00;;;;;;;8.66;53.98;101080.09;2143768;83;28843;-67
2021/04/23 20:53:16;;;;;;;19.62;9.13;;;;;;;8.65;54.24;101076.14;2143567;83;32075;-64
2021/04/23 20:56:18;;;;;;;21.40;10.13;;;;;;;8.64;54.26;101073.91;2143620;83;33994;-66
2021/04/23 20:59:22;;;;;;;18.95;8.03;;;;;;;8.62;54.20;101074.89;2143719;83;29673;-63
2021/04/23 21:02:25;;;;;;;21.25;8.25;;;;;;;8.60;54.16;101084.30;2188497;80;28265;-64
2021/04/23 21:05:27;;;;;;;16.75;8.80;;;;;;;8.57;54.34;101076.36;2171216;80;29726;-68
2021/04/23 21:08:30;;;;;;;19.30;8.40;;;;;;;8.55;54.60;101070.19;2171550;80;31185;-70
2021/04/23 21:11:32;;;;;;;21.97;8.95;;;;;;;8.53;54.28;101070.69;2168426;81;32967;-68
2021/04/23 21:14:34;;;;;;;21.93;8.50;;;;;;;8.51;54.51;101075.20;2168214;81;29167;-66
2021/04/23 21:17:37;;;;;;;26.50;10.58;;;;;;;8.49;54.40;101076.59;2170152;80;28271;-63
2021/04/23 21:20:39;;;;;;;26.33;9.65;;;;;;;8.46;54.37;101078.41;2182819;80;29868;-60
2021/04/23 21:23:42;;;;;;;22.95;10.82;;;;;;;8.41;54.50;101074.54;2205550;80;31765;-60
2021/04/23 21:26:44;;;;;;;23.85;11.25;;;;;;;8.36;54.74;101080.02;2169554;80;33410;-60
2021/04/23 21:29:47;;;;;;;22.37;10.43;;;;;;;8.32;54.60;101078.81;2169292;82;28801;-59
2021/04/23 21:32:50;;;;;;;24.45;11.03;;;;;;;8.29;54.79;101082.42;2169412;82;27682;-59
2021/04/23 21:35:53;;;;;;;25.20;10.68;;;;;;;8.27;54.85;101078.95;2170260;80;28857;-64
2021/04/23 21:38:55;;;;;;;20.92;10.30;;;;;;;8.27;54.95;101074.05;2169666;80;31202;-61
2021/04/23 21:42:00;;;;;;;29.05;10.40;;;;;;;8.25;55.08;101071.44;2169935;80;34044;-64
2021/04/23 21:45:07;;;;;;;20.32;10.28;;;;;;;8.23;55.16;101075.94;2170380;80;29175;-63
2021/04/23 21:48:10;;;;;;;25.37;10.48;;;;;;;8.23;55.18;101071.94;2169690;82;27556;-59
2021/04/23 21:51:14;;;;;;;22.00;9.43;;;;;;;8.20;55.23;101074.69;2169698;80;28835;-58
2021/04/23 21:54:17;;;;;;;20.35;10.10;;;;;;;8.19;55.35;101071.59;2171270;80;31186;-66
2021/04/23 21:57:19;;;;;;;23.20;9.95;;;;;;;8.17;55.67;101068.98;2169771;82;33117;-58
2021/04/23 22:00:23;;;;;;;27.62;10.03;;;;;;;8.14;55.54;101075.73;2166066;81;29177;-62
2021/04/23 22:03:25;;;;;;;26.00;11.40;;;;;;;8.12;55.47;101074.89;2140848;83;27713;-57
2021/04/23 22:06:28;;;;;;;32.20;14.65;;;;;;;8.09;55.69;101073.63;2140953;83;28870;-58
2021/04/23 22:09:30;;;;;;;26.52;12.33;;;;;;;8.05;55.67;101078.63;2140933;82;32557;-58
2021/04/23 22:12:33;;;;;;;29.60;13.88;;;;;;;7.99;55.66;101073.00;2094530;83;33146;-59
2021/04/23 22:15:35;;;;;;;28.10;12.40;;;;;;;7.95;55.95;101076.66;2125566;83;29248;-59
2021/04/23 22:18:37;;;;;;;25.57;11.43;;;;;;;7.90;55.97;101080.78;2125699;83;27735;-61
2021/04/23 22:21:41;;;;;;;20.72;11.25;;;;;;;7.86;56.08;101083.58;2125657;83;28772;-66
2021/04/23 22:24:44;;;;;;;26.27;13.35;;;;;;;7.79;56.09;101082.87;2125523;83;31654;-60
2021/04/23 22:27:46;;;;;;;30.10;13.53;;;;;;;7.75;56.18;101083.41;2125429;83;33138;-61
2021/04/23 22:30:49;;;;;;;22.98;11.73;;;;;;;7.71;56.27;101091.50;2138481;82;29521;-59
2021/04/23 22:33:51;;;;;;;22.60;10.98;;;;;;;7.67;56.43;101090.71;2125688;83;27843;-65
2021/04/23 22:36:54;;;;;;;23.73;10.82;;;;;;;7.65;56.44;101089.00;2125430;83;29591;-60
2021/04/23 22:39:56;;;;;;;25.52;11.30;;;;;;;7.62;56.70;101093.08;2125638;83;31583;-66
2021/04/23 22:42:58;;;;;;;22.52;11.73;;;;;;;7.59;56.78;101090.04;2125685;83;33615;-60
2021/04/23 22:46:01;;;;;;;21.42;10.08;;;;;;;7.56;56.99;101096.77;2125651;83;29788;-60
2021/04/23 22:49:04;;;;;;;22.73;10.60;;;;;;;7.52;57.13;101095.09;2141209;83;27701;-61
2021/04/23 22:52:06;;;;;;;23.98;11.78;;;;;;;7.49;57.18;101097.38;2140635;82;28814;-60
2021/04/23 22:55:13;;;;;;;26.57;11.30;;;;;;;7.44;57.25;101094.83;2141123;82;31151;-60
2021/04/23 22:58:15;;;;;;;31.05;13.05;;;;;;;7.42;57.51;101093.98;2141208;83;33118;-58
2021/04/23 23:01:18;;;;;;;25.43;12.40;;;;;;;7.39;57.51;101096.72;2149995;81;30030;-59
2021/04/23 23:04:21;;;;;;;27.93;13.43;;;;;;;7.39;57.69;101103.82;2169300;81;27578;-59
2021/04/23 23:07:25;;;;;;;29.98;15.50;;;;;;;7.42;57.80;101095.76;2169677;82;28812;-58
2021/04/23 23:10:31;;;;;;;31.90;15.38;;;;;;;7.47;57.85;101098.31;2169788;82;32473;-59
2021/04/23 23:13:33;;;;;;;32.58;12.60;;;;;;;7.51;57.99;101106.66;2169891;82;33359;-58
2021/04/23 23:16:36;;;;;;;27.35;12.15;;;;;;;7.53;57.58;101096.84;2193734;80;30316;-61
2021/04/23 23:19:38;;;;;;;25.20;12.23;;;;;;;7.56;57.39;101096.77;2169177;82;27742;-59
2021/04/23 23:22:40;;;;;;;25.35;12.25;;;;;;;7.56;57.21;101094.97;2169855;82;28830;-58
2021/04/23 23:25:43;;;;;;;23.25;11.85;;;;;;;7.58;57.29;101093.14;2168242;80;31136;-59
2021/04/23 23:28:45;;;;;;;23.90;11.70;;;;;;;7.60;57.19;101094.46;2161816;82;35397;-59
2021/04/23 23:31:47;;;;;;;22.42;10.23;;;;;;;7.61;57.21;101093.55;2161935;82;29180;-59
2021/04/23 23:34:49;;;;;;;23.83;10.28;;;;;;;7.62;57.34;101091.74;2163366;82;27711;-58
2021/04/23 23:37:52;;;;;;;27.50;10.88;;;;;;;7.62;57.26;101091.74;2169889;82;28854;-60
2021/04/23 23:40:54;;;;;;;18.30;9.68;;;;;;;7.60;57.31;101093.98;2169716;82;31128;-62
2021/04/23 23:43:56;;;;;;;19.90;10.68;;;;;;;7.59;57.05;101092.23;2169826;82;33298;-60
2021/04/23 23:47:04;;;;;;;20.50;9.68;;;;;;;7.57;57.45;101096.72;2169698;80;30547;-60
2021/04/23 23:50:09;;;;;;;20.82;9.48;;;;;;;7.56;57.82;101094.11;2169290;82;27803;-59
2021/04/23 23:53:11;;;;;;;;;;;;;;;7.53;57.61;101100.84;2172392;82;28833;-58
2021/04/23 23:56:13;;;;;;;22.73;9.00;;;;;;;7.49;57.59;101105.38;2170262;80;31132;-64
2021/04/23 23:59:15;;;;;;;21.95;9.80;;;;;;;7.45;57.42;101101.02;2169015;82;33139;-62
